Terminal Aerodrome Forecast
Issued by NWS Austin/San Antonio, TX

Home | Current Version | Previous Version | Text Only | Print | Product List | Glossary On
Versions: 1 2 3 4 5 6 7 8 9 10 11 12 13 14 15 16 17 18 19 20 21 22 23 24 25 26 27 28 29
000
FTUS44 KEWX 310539
TAFAUS
TAF
KAUS 310539Z 3106/0112 17009KT P6SM FEW035 OVC250
     FM311000 VRB03KT 5SM BR OVC008
     FM311700 15006KT P6SM VCTS OVC015CB
     FM312000 15007KT P6SM BKN050 BKN250
     FM010700 15003KT P6SM OVC015
     FM011000 16003KT 5SM BR OVC007=

USA.gov is the U.S. government's official web portal to all federal, state and local government web resources and services.